createdAt,value
2022-09-28T00:01:07.806Z,5.53
2022-09-28T00:06:06.675Z,5.32
2022-09-28T00:11:04.768Z,4.88
2022-09-28T00:16:10.901Z,5.30
2022-09-28T00:21:13.217Z,4.80
2022-09-28T00:26:09.482Z,4.43
2022-09-28T00:31:05.831Z,4.63
2022-09-28T00:36:02.173Z,4.40
2022-09-28T00:40:59.543Z,4.13
2022-09-28T00:46:02.746Z,4.20
2022-09-28T00:51:03.949Z,4.15
2022-09-28T00:56:04.769Z,4.88
2022-09-28T01:01:01.218Z,5.22
2022-09-28T01:06:00.228Z,5.22
2022-09-28T01:10:59.110Z,4.50
2022-09-28T01:16:03.384Z,5.00
2022-09-28T01:21:05.337Z,5.32
2022-09-28T01:26:36.915Z,6.38
2022-09-28T01:31:36.271Z,5.90
2022-09-28T01:36:45.812Z,6.78
2022-09-28T01:41:46.190Z,6.28
2022-09-28T01:46:46.587Z,6.28
2022-09-28T01:51:58.409Z,4.95
2022-09-28T01:57:00.398Z,5.50
2022-09-28T02:02:02.172Z,5.40
2022-09-28T02:07:12.378Z,5.35
2022-09-28T02:12:25.513Z,5.03
2022-09-28T02:17:21.904Z,4.57
2022-09-28T02:22:28.404Z,3.97
2022-09-28T02:27:51.487Z,4.07
2022-09-28T02:32:53.510Z,3.25
2022-09-28T02:37:50.350Z,3.22
2022-09-28T02:43:11.333Z,3.35
2022-09-28T02:48:36.127Z,3.55
2022-09-28T02:53:47.843Z,3.75
2022-09-28T02:59:15.790Z,4.53
2022-09-28T03:04:32.499Z,4.30
2022-09-28T03:09:42.230Z,5.20
2022-09-28T03:14:38.764Z,5.95
2022-09-28T03:19:36.681Z,8.52
2022-09-28T03:24:32.949Z,9.32
2022-09-28T03:29:31.385Z,13.23
2022-09-28T03:34:27.655Z,11.63
2022-09-28T03:39:24.011Z,10.48
2022-09-28T03:44:20.638Z,11.02
2022-09-28T03:49:17.112Z,11.55
2022-09-28T03:54:13.722Z,11.30
2022-09-28T03:59:10.099Z,12.32
2022-09-28T04:04:06.504Z,11.90
2022-09-28T04:09:03.014Z,13.48
2022-09-28T04:13:59.370Z,13.85
2022-09-28T04:18:55.757Z,13.85
2022-09-28T04:23:53.091Z,15.35
2022-09-28T04:29:08.122Z,12.57
2022-09-28T04:34:04.442Z,12.57
2022-09-28T04:39:00.961Z,13.27
2022-09-28T04:43:57.243Z,13.30
2022-09-28T04:48:53.559Z,13.63
2022-09-28T04:53:50.107Z,15.77
2022-09-28T04:58:51.748Z,16.33
2022-09-28T05:03:50.878Z,18.98
2022-09-28T05:08:47.272Z,18.42
2022-09-28T05:13:45.506Z,17.10
2022-09-28T05:18:42.373Z,19.88
2022-09-28T05:23:40.189Z,19.30
2022-09-28T05:28:36.614Z,18.27
2022-09-28T05:33:33.485Z,19.45
2022-09-28T05:38:30.333Z,20.25
2022-09-28T05:43:26.721Z,17.98
2022-09-28T05:48:23.148Z,20.23
2022-09-28T05:53:19.991Z,20.25
2022-09-28T05:58:17.042Z,19.98
2022-09-28T06:03:14.504Z,19.77
2022-09-28T06:08:11.499Z,19.98
2022-09-28T06:13:08.589Z,19.85
2022-09-28T06:18:09.526Z,20.63
2022-09-28T06:23:05.902Z,20.80
2022-09-28T06:28:06.597Z,19.30
2022-09-28T06:33:02.923Z,19.17
2022-09-28T06:38:00.989Z,21.23
2022-09-28T06:42:59.458Z,18.98
2022-09-28T06:48:00.757Z,18.80
2022-09-28T06:52:57.151Z,18.55
2022-09-28T06:58:04.837Z,18.73
2022-09-28T07:03:11.157Z,19.20
2022-09-28T07:08:07.539Z,20.10
2022-09-28T07:13:05.242Z,17.63
2022-09-28T07:18:04.223Z,16.27
2022-09-28T07:28:16.274Z,15.98
2022-09-28T07:33:15.821Z,18.85
2022-09-28T07:38:13.153Z,17.58
2022-09-28T07:43:09.515Z,17.48
2022-09-28T07:48:05.919Z,18.40
2022-09-28T07:53:02.341Z,17.52
2022-09-28T07:58:02.111Z,17.90
2022-09-28T09:38:58.189Z,11.10
2022-09-28T09:44:16.299Z,9.40
2022-09-28T09:49:34.438Z,7.50
2022-09-28T09:54:42.649Z,6.50
2022-09-28T09:59:41.822Z,7.18
2022-09-28T10:04:43.103Z,7.28
2022-09-28T10:09:46.649Z,7.32
2022-09-28T10:14:43.544Z,8.55
2022-09-28T10:19:39.892Z,8.15
2022-09-28T10:24:41.412Z,8.02
2022-09-28T10:29:59.923Z,6.85
2022-09-28T10:35:11.699Z,5.18
2022-09-28T10:40:30.322Z,4.38
2022-09-28T10:45:27.437Z,3.47
2022-09-28T10:50:27.457Z,4.40
2022-09-28T10:55:32.143Z,4.47
2022-09-28T11:00:37.799Z,5.00
2022-09-28T11:05:34.435Z,4.90
2022-09-28T11:10:32.764Z,5.65
2022-09-28T11:15:32.178Z,4.65
2022-09-28T11:20:30.342Z,5.03
2022-09-28T11:25:28.952Z,4.35
2022-09-28T11:30:38.188Z,6.18
2022-09-28T11:35:46.950Z,7.20
2022-09-28T11:41:22.349Z,6.93
2022-09-28T11:46:34.171Z,6.50
2022-09-28T11:51:34.396Z,6.47
2022-09-28T11:56:43.745Z,6.63
2022-09-28T12:01:51.683Z,5.45
2022-09-28T12:06:58.981Z,5.55
2022-09-28T12:12:01.607Z,6.93
2022-09-28T12:17:24.099Z,6.38
2022-09-28T12:22:34.758Z,6.63
2022-09-28T12:27:50.860Z,6.22
2022-09-28T12:32:56.020Z,6.18
2022-09-28T12:38:33.049Z,6.45
2022-09-28T12:43:40.481Z,6.60
2022-09-28T12:49:36.693Z,7.07
2022-09-28T12:54:40.210Z,6.88
2022-09-28T12:59:50.245Z,6.22
2022-09-28T13:04:54.910Z,4.10
2022-09-28T13:10:03.054Z,4.78
2022-09-28T13:15:33.854Z,4.18
2022-09-28T13:21:03.860Z,3.13
2022-09-28T13:26:28.448Z,4.60
2022-09-28T13:31:33.195Z,3.97
2022-09-28T13:36:32.234Z,3.23
2022-09-28T13:41:31.614Z,3.72
2022-09-28T13:46:44.799Z,3.95
2022-09-28T13:52:02.986Z,3.90
2022-09-28T13:57:19.536Z,3.70
2022-09-28T14:02:28.841Z,3.85
2022-09-28T14:07:35.792Z,3.10
2022-09-28T14:12:35.103Z,4.15
2022-09-28T14:18:14.175Z,4.00
2022-09-28T14:23:24.206Z,4.70
2022-09-28T14:28:57.217Z,3.60
2022-09-28T14:33:56.921Z,3.65
2022-09-28T14:39:12.343Z,4.75
2022-09-28T14:44:11.522Z,3.83
2022-09-28T14:49:17.394Z,3.53
2022-09-28T14:54:25.435Z,2.85
2022-09-28T14:59:22.846Z,3.25
2022-09-28T15:04:20.312Z,2.47
2022-09-28T15:09:35.024Z,1.80
2022-09-28T15:14:42.185Z,2.70
2022-09-28T15:19:57.376Z,2.40
2022-09-28T15:25:13.206Z,2.47
2022-09-28T15:30:22.372Z,2.22
2022-09-28T15:35:26.921Z,2.22
2022-09-28T15:40:37.638Z,2.33
2022-09-28T15:45:39.880Z,2.70
2022-09-28T15:50:36.670Z,2.58
2022-09-28T15:55:42.285Z,2.15
2022-09-28T16:00:39.559Z,2.70
2022-09-28T16:05:49.382Z,2.58
2022-09-28T16:11:03.313Z,2.50
2022-09-28T16:16:00.260Z,2.45
2022-09-28T16:21:28.822Z,2.38
2022-09-28T16:26:32.369Z,2.38
2022-09-28T16:31:34.337Z,2.47
2022-09-28T16:36:43.345Z,2.55
2022-09-28T16:41:44.133Z,2.38
2022-09-28T16:46:40.665Z,2.58
2022-09-28T16:51:40.001Z,2.38
2022-09-28T16:56:37.005Z,2.80
2022-09-28T17:01:33.401Z,2.28
2022-09-28T17:06:29.929Z,2.80
2022-09-28T17:11:26.259Z,2.53
2022-09-28T17:16:37.218Z,2.85
2022-09-28T17:21:39.300Z,2.40
2022-09-28T17:26:35.992Z,2.88
2022-09-28T17:31:32.260Z,3.45
2022-09-28T17:36:30.319Z,3.47
2022-09-28T17:41:26.662Z,3.75
2022-09-28T17:46:34.871Z,3.55
2022-09-28T17:51:34.653Z,3.20
2022-09-28T17:56:32.692Z,3.20
2022-09-28T18:01:33.943Z,4.47
2022-09-28T18:06:33.384Z,4.53
2022-09-28T18:11:31.142Z,4.45
2022-09-28T18:16:28.648Z,4.27
2022-09-28T18:21:25.174Z,3.30
2022-09-28T18:26:21.489Z,4.28
2022-09-28T18:31:19.102Z,4.55
2022-09-28T18:36:15.470Z,4.37
2022-09-28T18:41:15.624Z,4.95
2022-09-28T18:46:12.263Z,5.00
2022-09-28T18:51:10.967Z,5.18
2022-09-28T18:56:09.342Z,4.47
2022-09-28T19:01:29.491Z,5.05
2022-09-28T19:06:27.968Z,6.50
2022-09-28T19:11:25.439Z,6.70
2022-09-28T19:16:25.478Z,6.35
2022-09-28T19:21:21.842Z,6.20
2022-09-28T19:26:23.459Z,6.90
2022-09-28T19:31:20.242Z,6.93
2022-09-28T19:36:19.346Z,6.05
2022-09-28T19:41:39.130Z,6.82
2022-09-28T19:46:38.922Z,8.00
2022-09-28T19:51:35.250Z,7.40
2022-09-28T19:56:32.887Z,7.80
2022-09-28T20:01:30.839Z,7.20
2022-09-28T20:06:28.029Z,7.68
2022-09-28T20:11:25.570Z,7.97
2022-09-28T20:16:24.406Z,6.05
2022-09-28T20:21:26.449Z,7.85
2022-09-28T20:26:23.651Z,8.98
2022-09-28T20:31:24.858Z,9.82
2022-09-28T20:36:23.248Z,9.85
2022-09-28T20:41:22.870Z,9.18
2022-09-28T20:46:21.167Z,10.30
2022-09-28T20:51:19.918Z,9.75
2022-09-28T21:01:44.487Z,9.90
2022-09-28T21:06:42.087Z,10.73
2022-09-28T21:11:38.790Z,10.80
2022-09-28T21:16:35.502Z,10.63
2022-09-28T21:21:32.181Z,10.45
2022-09-28T21:26:31.067Z,10.75
2022-09-28T21:31:31.327Z,10.55
2022-09-28T21:36:27.743Z,11.93
2022-09-28T21:41:25.103Z,9.98
2022-09-28T21:46:21.790Z,9.77
2022-09-28T21:51:18.189Z,9.68
2022-09-28T21:56:14.519Z,9.50
2022-09-28T22:01:15.390Z,8.93
2022-09-28T22:06:11.954Z,9.80
2022-09-28T22:11:14.152Z,9.52
2022-09-28T22:16:12.439Z,10.75
2022-09-28T22:21:20.366Z,10.93
2022-09-28T22:26:23.299Z,9.93
2022-09-28T22:31:21.616Z,9.63
2022-09-28T22:36:19.083Z,9.95
2022-09-28T22:41:17.602Z,9.57
2022-09-28T22:51:11.973Z,10.70
2022-09-28T22:56:09.407Z,10.80
2022-09-28T23:01:17.779Z,11.18
2022-09-28T23:11:13.420Z,10.00
2022-09-28T23:16:14.663Z,11.00
2022-09-28T23:21:15.137Z,11.50
2022-09-28T23:26:14.054Z,11.65
2022-09-28T23:31:13.327Z,11.85
2022-09-28T23:36:10.349Z,11.32
2022-09-28T23:41:06.928Z,11.38
2022-09-28T23:46:04.531Z,11.35
2022-09-28T23:51:01.409Z,11.40
2022-09-28T23:55:57.825Z,10.30
